sensor_id;sensor_type;location;lat;lon;timestamp;temperature;humidity
19803;DHT22;66074;50.764;6.090;2023-02-25T00:00:11;5.40;99.90
19803;DHT22;66074;50.764;6.090;2023-02-25T00:02:48;5.30;99.90
19803;DHT22;66074;50.764;6.090;2023-02-25T00:05:17;5.30;99.90
19803;DHT22;66074;50.764;6.090;2023-02-25T00:07:44;5.20;99.90
19803;DHT22;66074;50.764;6.090;2023-02-25T00:10:11;5.20;99.90
19803;DHT22;66074;50.764;6.090;2023-02-25T00:12:38;5.20;99.90
19803;DHT22;66074;50.764;6.090;2023-02-25T00:15:05;5.20;99.90
19803;DHT22;66074;50.764;6.090;2023-02-25T00:17:31;5.20;99.90
19803;DHT22;66074;50.764;6.090;2023-02-25T00:19:57;5.20;99.90
19803;DHT22;66074;50.764;6.090;2023-02-25T00:22:24;5.30;99.90
19803;DHT22;66074;50.764;6.090;2023-02-25T00:24:56;5.30;99.90
19803;DHT22;66074;50.764;6.090;2023-02-25T00:27:23;5.40;99.90
19803;DHT22;66074;50.764;6.090;2023-02-25T00:29:52;5.30;99.90
19803;DHT22;66074;50.764;6.090;2023-02-25T00:32:18;5.40;99.90
19803;DHT22;66074;50.764;6.090;2023-02-25T00:34:44;5.50;99.90
19803;DHT22;66074;50.764;6.090;2023-02-25T00:37:11;5.50;99.90
19803;DHT22;66074;50.764;6.090;2023-02-25T00:39:37;5.50;99.90
19803;DHT22;66074;50.764;6.090;2023-02-25T00:42:15;5.50;99.90
19803;DHT22;66074;50.764;6.090;2023-02-25T00:44:44;5.50;99.90
19803;DHT22;66074;50.764;6.090;2023-02-25T00:47:10;5.50;99.90
19803;DHT22;66074;50.764;6.090;2023-02-25T00:49:36;5.50;99.90
19803;DHT22;66074;50.764;6.090;2023-02-25T00:52:01;5.50;99.90
19803;DHT22;66074;50.764;6.090;2023-02-25T00:54:27;5.60;99.90
19803;DHT22;66074;50.764;6.090;2023-02-25T00:56:53;5.60;99.90
19803;DHT22;66074;50.764;6.090;2023-02-25T00:59:19;5.60;99.90
19803;DHT22;66074;50.764;6.090;2023-02-25T01:01:45;5.50;99.90
19803;DHT22;66074;50.764;6.090;2023-02-25T01:04:10;5.60;99.90
19803;DHT22;66074;50.764;6.090;2023-02-25T01:06:36;5.60;99.90
19803;DHT22;66074;50.764;6.090;2023-02-25T01:09:05;5.60;99.90
19803;DHT22;66074;50.764;6.090;2023-02-25T01:11:33;5.60;99.90
19803;DHT22;66074;50.764;6.090;2023-02-25T01:14:09;5.50;99.90
19803;DHT22;66074;50.764;6.090;2023-02-25T01:16:35;5.60;99.90
19803;DHT22;66074;50.764;6.090;2023-02-25T01:19:06;5.60;99.90
19803;DHT22;66074;50.764;6.090;2023-02-25T01:21:36;5.60;99.90
19803;DHT22;66074;50.764;6.090;2023-02-25T01:24:08;5.60;99.90
19803;DHT22;66074;50.764;6.090;2023-02-25T01:26:37;5.60;99.90
19803;DHT22;66074;50.764;6.090;2023-02-25T01:29:12;5.60;99.90
19803;DHT22;66074;50.764;6.090;2023-02-25T01:31:38;5.60;99.90
19803;DHT22;66074;50.764;6.090;2023-02-25T01:34:06;5.60;99.90
19803;DHT22;66074;50.764;6.090;2023-02-25T01:36:32;5.60;99.90
19803;DHT22;66074;50.764;6.090;2023-02-25T01:39:00;5.60;99.90
19803;DHT22;66074;50.764;6.090;2023-02-25T01:41:27;5.60;99.90
19803;DHT22;66074;50.764;6.090;2023-02-25T01:44:15;5.50;99.90
19803;DHT22;66074;50.764;6.090;2023-02-25T01:46:43;5.50;99.90
19803;DHT22;66074;50.764;6.090;2023-02-25T01:51:44;5.50;99.90
19803;DHT22;66074;50.764;6.090;2023-02-25T01:54:11;5.50;99.90
19803;DHT22;66074;50.764;6.090;2023-02-25T01:56:40;5.50;99.90
19803;DHT22;66074;50.764;6.090;2023-02-25T01:59:07;5.40;99.90
19803;DHT22;66074;50.764;6.090;2023-02-25T02:01:36;5.50;99.90
19803;DHT22;66074;50.764;6.090;2023-02-25T02:04:04;5.40;99.90
19803;DHT22;66074;50.764;6.090;2023-02-25T02:06:37;5.40;99.90
19803;DHT22;66074;50.764;6.090;2023-02-25T02:09:06;5.40;99.90
19803;DHT22;66074;50.764;6.090;2023-02-25T02:11:32;5.40;99.90
19803;DHT22;66074;50.764;6.090;2023-02-25T02:14:01;5.40;99.90
19803;DHT22;66074;50.764;6.090;2023-02-25T02:22:28;5.00;99.90
19803;DHT22;66074;50.764;6.090;2023-02-25T02:33:28;5.00;99.90
19803;DHT22;66074;50.764;6.090;2023-02-25T02:36:18;5.00;99.90
19803;DHT22;66074;50.764;6.090;2023-02-25T02:39:03;5.10;99.90
19803;DHT22;66074;50.764;6.090;2023-02-25T02:41:36;5.20;99.90
19803;DHT22;66074;50.764;6.090;2023-02-25T02:44:25;5.20;99.90
19803;DHT22;66074;50.764;6.090;2023-02-25T02:46:59;5.20;99.90
19803;DHT22;66074;50.764;6.090;2023-02-25T02:52:04;5.20;99.90
19803;DHT22;66074;50.764;6.090;2023-02-25T02:54:34;5.20;99.90
19803;DHT22;66074;50.764;6.090;2023-02-25T02:57:01;5.20;99.90
19803;DHT22;66074;50.764;6.090;2023-02-25T02:59:31;5.20;99.90
19803;DHT22;66074;50.764;6.090;2023-02-25T03:02:06;5.20;99.90
19803;DHT22;66074;50.764;6.090;2023-02-25T03:04:36;5.20;99.90
19803;DHT22;66074;50.764;6.090;2023-02-25T03:07:09;5.30;99.90
19803;DHT22;66074;50.764;6.090;2023-02-25T03:09:40;5.20;99.90
19803;DHT22;66074;50.764;6.090;2023-02-25T03:12:07;5.20;99.90
19803;DHT22;66074;50.764;6.090;2023-02-25T03:14:32;5.20;99.90
19803;DHT22;66074;50.764;6.090;2023-02-25T03:17:28;5.20;99.90
19803;DHT22;66074;50.764;6.090;2023-02-25T03:19:58;5.20;99.90
19803;DHT22;66074;50.764;6.090;2023-02-25T03:22:30;5.20;99.90
19803;DHT22;66074;50.764;6.090;2023-02-25T03:25:09;5.10;99.90
19803;DHT22;66074;50.764;6.090;2023-02-25T03:27:40;5.20;99.90
19803;DHT22;66074;50.764;6.090;2023-02-25T03:33:23;5.10;99.90
19803;DHT22;66074;50.764;6.090;2023-02-25T03:35:47;5.10;99.90
19803;DHT22;66074;50.764;6.090;2023-02-25T03:38:19;5.10;99.90
19803;DHT22;66074;50.764;6.090;2023-02-25T03:40:47;5.10;99.90
19803;DHT22;66074;50.764;6.090;2023-02-25T03:43:19;5.10;99.90
19803;DHT22;66074;50.764;6.090;2023-02-25T03:45:47;5.10;99.90
19803;DHT22;66074;50.764;6.090;2023-02-25T03:48:14;5.10;99.90
19803;DHT22;66074;50.764;6.090;2023-02-25T03:50:51;5.10;99.90
19803;DHT22;66074;50.764;6.090;2023-02-25T03:53:18;5.10;99.90
19803;DHT22;66074;50.764;6.090;2023-02-25T03:55:45;5.20;99.90
19803;DHT22;66074;50.764;6.090;2023-02-25T03:58:11;5.20;99.90
19803;DHT22;66074;50.764;6.090;2023-02-25T04:00:38;5.20;99.90
19803;DHT22;66074;50.764;6.090;2023-02-25T04:03:05;5.20;99.90
19803;DHT22;66074;50.764;6.090;2023-02-25T04:05:30;5.20;99.90
19803;DHT22;66074;50.764;6.090;2023-02-25T04:07:57;5.20;99.90
19803;DHT22;66074;50.764;6.090;2023-02-25T04:10:24;5.20;99.90
19803;DHT22;66074;50.764;6.090;2023-02-25T04:12:50;5.10;99.90
19803;DHT22;66074;50.764;6.090;2023-02-25T04:15:17;5.10;99.90
19803;DHT22;66074;50.764;6.090;2023-02-25T04:17:43;5.10;99.90
19803;DHT22;66074;50.764;6.090;2023-02-25T04:20:13;5.10;99.90
19803;DHT22;66074;50.764;6.090;2023-02-25T04:22:39;5.10;99.90
19803;DHT22;66074;50.764;6.090;2023-02-25T04:25:05;5.10;99.90
19803;DHT22;66074;50.764;6.090;2023-02-25T04:27:30;5.10;99.90
19803;DHT22;66074;50.764;6.090;2023-02-25T04:29:57;5.00;99.90
19803;DHT22;66074;50.764;6.090;2023-02-25T04:32:23;5.10;99.90
19803;DHT22;66074;50.764;6.090;2023-02-25T04:34:49;5.00;99.90
19803;DHT22;66074;50.764;6.090;2023-02-25T04:37:14;5.10;99.90
19803;DHT22;66074;50.764;6.090;2023-02-25T04:39:40;5.10;99.90
19803;DHT22;66074;50.764;6.090;2023-02-25T04:42:06;5.10;99.90
19803;DHT22;66074;50.764;6.090;2023-02-25T04:44:31;5.10;99.90
19803;DHT22;66074;50.764;6.090;2023-02-25T04:46:57;5.10;99.90
19803;DHT22;66074;50.764;6.090;2023-02-25T04:49:22;5.10;99.90
19803;DHT22;66074;50.764;6.090;2023-02-25T04:51:49;5.10;99.90
19803;DHT22;66074;50.764;6.090;2023-02-25T04:54:16;5.10;99.90
19803;DHT22;66074;50.764;6.090;2023-02-25T04:56:43;5.10;99.90
19803;DHT22;66074;50.764;6.090;2023-02-25T04:59:10;5.00;99.90
19803;DHT22;66074;50.764;6.090;2023-02-25T05:01:36;5.10;99.90
19803;DHT22;66074;50.764;6.090;2023-02-25T05:04:02;5.10;99.90
19803;DHT22;66074;50.764;6.090;2023-02-25T05:06:28;5.10;99.90
19803;DHT22;66074;50.764;6.090;2023-02-25T05:08:55;5.10;99.90
19803;DHT22;66074;50.764;6.090;2023-02-25T05:11:23;5.10;99.90
19803;DHT22;66074;50.764;6.090;2023-02-25T05:13:49;5.10;99.90
19803;DHT22;66074;50.764;6.090;2023-02-25T05:16:16;5.00;99.90
19803;DHT22;66074;50.764;6.090;2023-02-25T05:18:43;5.00;99.90
19803;DHT22;66074;50.764;6.090;2023-02-25T05:21:11;5.00;99.90
19803;DHT22;66074;50.764;6.090;2023-02-25T05:23:41;5.00;99.90
19803;DHT22;66074;50.764;6.090;2023-02-25T05:26:08;5.00;99.90
19803;DHT22;66074;50.764;6.090;2023-02-25T05:28:34;5.00;99.90
19803;DHT22;66074;50.764;6.090;2023-02-25T05:31:07;5.10;99.90
19803;DHT22;66074;50.764;6.090;2023-02-25T05:33:36;5.10;99.90
19803;DHT22;66074;50.764;6.090;2023-02-25T05:36:07;5.10;99.90
19803;DHT22;66074;50.764;6.090;2023-02-25T05:38:33;5.10;99.90
19803;DHT22;66074;50.764;6.090;2023-02-25T05:41:00;5.00;99.90
19803;DHT22;66074;50.764;6.090;2023-02-25T05:43:26;5.00;99.90
19803;DHT22;66074;50.764;6.090;2023-02-25T05:45:56;5.00;99.90
19803;DHT22;66074;50.764;6.090;2023-02-25T05:48:22;5.00;99.90
19803;DHT22;66074;50.764;6.090;2023-02-25T05:50:49;5.00;99.90
19803;DHT22;66074;50.764;6.090;2023-02-25T05:53:18;5.00;99.90
19803;DHT22;66074;50.764;6.090;2023-02-25T05:55:45;4.90;99.90
19803;DHT22;66074;50.764;6.090;2023-02-25T05:58:11;5.00;99.90
19803;DHT22;66074;50.764;6.090;2023-02-25T06:00:37;5.00;99.90
19803;DHT22;66074;50.764;6.090;2023-02-25T06:03:03;5.00;99.90
19803;DHT22;66074;50.764;6.090;2023-02-25T06:05:29;4.90;99.90
19803;DHT22;66074;50.764;6.090;2023-02-25T06:07:56;5.00;99.90
19803;DHT22;66074;50.764;6.090;2023-02-25T06:10:22;4.90;99.90
19803;DHT22;66074;50.764;6.090;2023-02-25T06:12:48;4.90;99.90
19803;DHT22;66074;50.764;6.090;2023-02-25T06:15:14;5.00;99.90
19803;DHT22;66074;50.764;6.090;2023-02-25T06:17:39;4.90;99.90
19803;DHT22;66074;50.764;6.090;2023-02-25T06:20:05;4.90;99.90
19803;DHT22;66074;50.764;6.090;2023-02-25T06:22:32;4.90;99.90
19803;DHT22;66074;50.764;6.090;2023-02-25T06:24:58;5.00;99.90
19803;DHT22;66074;50.764;6.090;2023-02-25T06:27:23;5.00;99.90
19803;DHT22;66074;50.764;6.090;2023-02-25T06:29:49;5.00;99.90
19803;DHT22;66074;50.764;6.090;2023-02-25T06:32:15;5.00;99.90
19803;DHT22;66074;50.764;6.090;2023-02-25T06:34:41;5.10;99.90
19803;DHT22;66074;50.764;6.090;2023-02-25T06:37:06;5.10;99.90
19803;DHT22;66074;50.764;6.090;2023-02-25T06:39:32;5.10;99.90
19803;DHT22;66074;50.764;6.090;2023-02-25T06:41:58;5.10;99.90
19803;DHT22;66074;50.764;6.090;2023-02-25T06:44:24;5.00;99.90
19803;DHT22;66074;50.764;6.090;2023-02-25T06:46:52;5.00;99.90
19803;DHT22;66074;50.764;6.090;2023-02-25T06:49:20;4.90;99.90
19803;DHT22;66074;50.764;6.090;2023-02-25T06:51:46;4.80;99.90
19803;DHT22;66074;50.764;6.090;2023-02-25T06:54:15;4.80;99.90
19803;DHT22;66074;50.764;6.090;2023-02-25T06:56:40;4.70;99.90
19803;DHT22;66074;50.764;6.090;2023-02-25T06:59:07;4.70;99.90
19803;DHT22;66074;50.764;6.090;2023-02-25T07:01:32;4.70;99.90
19803;DHT22;66074;50.764;6.090;2023-02-25T07:03:58;4.70;99.90
19803;DHT22;66074;50.764;6.090;2023-02-25T07:06:24;4.80;99.90
19803;DHT22;66074;50.764;6.090;2023-02-25T07:08:50;4.80;99.90
19803;DHT22;66074;50.764;6.090;2023-02-25T07:13:48;5.00;99.90
19803;DHT22;66074;50.764;6.090;2023-02-25T07:16:15;5.00;99.90
19803;DHT22;66074;50.764;6.090;2023-02-25T07:18:41;5.00;99.90
19803;DHT22;66074;50.764;6.090;2023-02-25T07:21:07;5.10;99.90
19803;DHT22;66074;50.764;6.090;2023-02-25T07:23:33;5.10;99.90
19803;DHT22;66074;50.764;6.090;2023-02-25T07:26:07;5.10;99.90
19803;DHT22;66074;50.764;6.090;2023-02-25T07:28:33;5.10;99.90
19803;DHT22;66074;50.764;6.090;2023-02-25T07:31:00;5.10;99.90
19803;DHT22;66074;50.764;6.090;2023-02-25T07:33:27;5.00;99.90
19803;DHT22;66074;50.764;6.090;2023-02-25T07:35:56;5.00;99.90
19803;DHT22;66074;50.764;6.090;2023-02-25T07:38:22;5.00;99.90
19803;DHT22;66074;50.764;6.090;2023-02-25T07:40:48;5.10;99.90
19803;DHT22;66074;50.764;6.090;2023-02-25T07:43:13;5.10;99.90
19803;DHT22;66074;50.764;6.090;2023-02-25T07:45:40;5.20;99.90
19803;DHT22;66074;50.764;6.090;2023-02-25T07:48:05;5.20;99.90
19803;DHT22;66074;50.764;6.090;2023-02-25T07:50:31;5.40;99.90
19803;DHT22;66074;50.764;6.090;2023-02-25T07:52:57;5.30;99.90
19803;DHT22;66074;50.764;6.090;2023-02-25T07:55:23;5.40;99.90
19803;DHT22;66074;50.764;6.090;2023-02-25T07:57:49;5.40;99.90
19803;DHT22;66074;50.764;6.090;2023-02-25T08:00:15;5.40;99.90
19803;DHT22;66074;50.764;6.090;2023-02-25T08:02:42;5.50;99.90
19803;DHT22;66074;50.764;6.090;2023-02-25T08:05:08;5.50;99.90
19803;DHT22;66074;50.764;6.090;2023-02-25T08:07:33;5.50;99.90
19803;DHT22;66074;50.764;6.090;2023-02-25T08:09:59;5.60;99.90
19803;DHT22;66074;50.764;6.090;2023-02-25T08:12:25;5.60;99.90
19803;DHT22;66074;50.764;6.090;2023-02-25T08:14:50;5.60;99.80
19803;DHT22;66074;50.764;6.090;2023-02-25T08:17:16;5.50;99.80
19803;DHT22;66074;50.764;6.090;2023-02-25T08:19:42;5.60;99.80
19803;DHT22;66074;50.764;6.090;2023-02-25T08:22:08;5.60;99.70
19803;DHT22;66074;50.764;6.090;2023-02-25T08:24:39;5.70;99.80
19803;DHT22;66074;50.764;6.090;2023-02-25T08:27:06;5.70;99.70
19803;DHT22;66074;50.764;6.090;2023-02-25T08:29:34;5.70;99.70
19803;DHT22;66074;50.764;6.090;2023-02-25T08:32:00;5.50;99.60
19803;DHT22;66074;50.764;6.090;2023-02-25T08:34:25;5.60;99.80
19803;DHT22;66074;50.764;6.090;2023-02-25T08:36:51;5.50;99.80
19803;DHT22;66074;50.764;6.090;2023-02-25T08:39:17;5.60;99.90
19803;DHT22;66074;50.764;6.090;2023-02-25T08:41:43;5.60;99.90
19803;DHT22;66074;50.764;6.090;2023-02-25T08:44:09;5.70;99.90
19803;DHT22;66074;50.764;6.090;2023-02-25T08:46:35;5.80;99.90
19803;DHT22;66074;50.764;6.090;2023-02-25T08:49:02;5.70;99.90
19803;DHT22;66074;50.764;6.090;2023-02-25T08:51:29;5.80;99.90
19803;DHT22;66074;50.764;6.090;2023-02-25T08:54:06;5.90;99.90
19803;DHT22;66074;50.764;6.090;2023-02-25T08:56:33;5.90;99.90
19803;DHT22;66074;50.764;6.090;2023-02-25T08:59:00;5.90;99.90
19803;DHT22;66074;50.764;6.090;2023-02-25T09:01:25;6.00;99.90
19803;DHT22;66074;50.764;6.090;2023-02-25T09:04:03;6.00;99.90
19803;DHT22;66074;50.764;6.090;2023-02-25T09:06:29;6.10;99.90
19803;DHT22;66074;50.764;6.090;2023-02-25T09:08:55;6.20;99.90
19803;DHT22;66074;50.764;6.090;2023-02-25T09:11:21;6.30;99.90
19803;DHT22;66074;50.764;6.090;2023-02-25T09:13:47;6.30;99.80
19803;DHT22;66074;50.764;6.090;2023-02-25T09:16:14;6.30;99.70
19803;DHT22;66074;50.764;6.090;2023-02-25T09:18:43;6.30;99.60
19803;DHT22;66074;50.764;6.090;2023-02-25T09:21:10;6.30;99.50
19803;DHT22;66074;50.764;6.090;2023-02-25T09:23:36;6.30;99.60
19803;DHT22;66074;50.764;6.090;2023-02-25T09:26:03;6.30;99.40
19803;DHT22;66074;50.764;6.090;2023-02-25T09:28:29;6.40;99.40
19803;DHT22;66074;50.764;6.090;2023-02-25T09:30:56;6.40;99.30
19803;DHT22;66074;50.764;6.090;2023-02-25T09:33:23;6.40;99.30
19803;DHT22;66074;50.764;6.090;2023-02-25T09:35:49;6.40;99.00
19803;DHT22;66074;50.764;6.090;2023-02-25T09:38:15;6.40;98.90
19803;DHT22;66074;50.764;6.090;2023-02-25T09:40:45;6.30;98.50
19803;DHT22;66074;50.764;6.090;2023-02-25T09:45:48;6.30;98.60
19803;DHT22;66074;50.764;6.090;2023-02-25T09:48:19;6.30;98.60
19803;DHT22;66074;50.764;6.090;2023-02-25T09:50:51;6.30;98.40
19803;DHT22;66074;50.764;6.090;2023-02-25T09:55:49;6.20;98.60
19803;DHT22;66074;50.764;6.090;2023-02-25T10:06:21;6.40;98.50
19803;DHT22;66074;50.764;6.090;2023-02-25T10:12:30;6.60;98.20
19803;DHT22;66074;50.764;6.090;2023-02-25T10:17:36;6.60;98.00
19803;DHT22;66074;50.764;6.090;2023-02-25T10:25:24;6.70;98.40
19803;DHT22;66074;50.764;6.090;2023-02-25T10:28:01;6.70;97.70
19803;DHT22;66074;50.764;6.090;2023-02-25T10:30:35;6.70;97.70
19803;DHT22;66074;50.764;6.090;2023-02-25T10:33:03;6.60;97.70
19803;DHT22;66074;50.764;6.090;2023-02-25T10:35:37;6.60;98.00
19803;DHT22;66074;50.764;6.090;2023-02-25T10:38:04;6.60;97.60
19803;DHT22;66074;50.764;6.090;2023-02-25T10:40:29;6.70;97.90
19803;DHT22;66074;50.764;6.090;2023-02-25T10:42:59;6.70;97.80
19803;DHT22;66074;50.764;6.090;2023-02-25T10:45:28;6.70;97.60
19803;DHT22;66074;50.764;6.090;2023-02-25T10:50:30;6.80;97.00
19803;DHT22;66074;50.764;6.090;2023-02-25T10:53:02;6.80;97.50
19803;DHT22;66074;50.764;6.090;2023-02-25T11:01:14;6.70;96.70
19803;DHT22;66074;50.764;6.090;2023-02-25T11:03:53;6.80;97.40
19803;DHT22;66074;50.764;6.090;2023-02-25T11:06:26;6.90;96.90
19803;DHT22;66074;50.764;6.090;2023-02-25T11:08:54;6.90;97.20
19803;DHT22;66074;50.764;6.090;2023-02-25T11:11:26;6.90;97.10
19803;DHT22;66074;50.764;6.090;2023-02-25T11:14:03;6.90;96.80
19803;DHT22;66074;50.764;6.090;2023-02-25T11:16:32;7.00;97.10
19803;DHT22;66074;50.764;6.090;2023-02-25T11:19:02;7.10;97.10
19803;DHT22;66074;50.764;6.090;2023-02-25T11:21:35;7.10;97.10
19803;DHT22;66074;50.764;6.090;2023-02-25T11:24:15;7.00;96.80
19803;DHT22;66074;50.764;6.090;2023-02-25T11:26:47;7.10;96.90
19803;DHT22;66074;50.764;6.090;2023-02-25T11:29:16;7.00;96.70
19803;DHT22;66074;50.764;6.090;2023-02-25T11:31:47;6.90;96.80
19803;DHT22;66074;50.764;6.090;2023-02-25T11:34:23;7.10;96.70
19803;DHT22;66074;50.764;6.090;2023-02-25T11:36:51;7.10;96.70
19803;DHT22;66074;50.764;6.090;2023-02-25T11:39:23;7.10;96.70
19803;DHT22;66074;50.764;6.090;2023-02-25T11:41:54;7.20;96.80
19803;DHT22;66074;50.764;6.090;2023-02-25T11:44:40;7.10;96.60
19803;DHT22;66074;50.764;6.090;2023-02-25T11:47:19;7.00;96.50
19803;DHT22;66074;50.764;6.090;2023-02-25T11:49:57;6.90;96.00
19803;DHT22;66074;50.764;6.090;2023-02-25T12:00:37;6.90;96.30
19803;DHT22;66074;50.764;6.090;2023-02-25T12:05:59;7.20;96.00
19803;DHT22;66074;50.764;6.090;2023-02-25T12:08:35;7.20;96.20
19803;DHT22;66074;50.764;6.090;2023-02-25T12:25:34;5.90;97.00
19803;DHT22;66074;50.764;6.090;2023-02-25T12:36:25;5.80;97.50
19803;DHT22;66074;50.764;6.090;2023-02-25T12:39:19;5.90;97.70
19803;DHT22;66074;50.764;6.090;2023-02-25T12:41:54;6.00;97.80
19803;DHT22;66074;50.764;6.090;2023-02-25T12:44:36;6.30;97.60
19803;DHT22;66074;50.764;6.090;2023-02-25T12:55:03;6.40;96.70
19803;DHT22;66074;50.764;6.090;2023-02-25T12:57:49;6.40;96.70
19803;DHT22;66074;50.764;6.090;2023-02-25T13:06:35;6.90;96.40
19803;DHT22;66074;50.764;6.090;2023-02-25T13:21:14;7.30;96.40
19803;DHT22;66074;50.764;6.090;2023-02-25T13:28:56;7.10;96.90
19803;DHT22;66074;50.764;6.090;2023-02-25T13:31:41;7.30;97.10
19803;DHT22;66074;50.764;6.090;2023-02-25T13:34:27;7.50;96.70
19803;DHT22;66074;50.764;6.090;2023-02-25T13:53:55;7.80;95.70
19803;DHT22;66074;50.764;6.090;2023-02-25T13:59:15;13.30;93.30
19803;DHT22;66074;50.764;6.090;2023-02-25T14:15:31;9.60;90.60
19803;DHT22;66074;50.764;6.090;2023-02-25T14:20:55;10.40;89.80
19803;DHT22;66074;50.764;6.090;2023-02-25T14:24:22;10.10;86.70
19803;DHT22;66074;50.764;6.090;2023-02-25T14:26:45;9.10;90.20
19803;DHT22;66074;50.764;6.090;2023-02-25T14:40:29;7.80;89.80
19803;DHT22;66074;50.764;6.090;2023-02-25T14:43:00;8.30;88.90
19803;DHT22;66074;50.764;6.090;2023-02-25T14:48:09;8.40;90.00
19803;DHT22;66074;50.764;6.090;2023-02-25T14:58:48;8.00;89.60
19803;DHT22;66074;50.764;6.090;2023-02-25T15:23:57;8.20;89.60
19803;DHT22;66074;50.764;6.090;2023-02-25T15:26:44;8.10;90.00
19803;DHT22;66074;50.764;6.090;2023-02-25T15:32:22;7.90;85.80
19803;DHT22;66074;50.764;6.090;2023-02-25T15:35:00;7.80;87.20
19803;DHT22;66074;50.764;6.090;2023-02-25T15:39:57;7.70;90.00
19803;DHT22;66074;50.764;6.090;2023-02-25T15:53:55;7.20;85.50
19803;DHT22;66074;50.764;6.090;2023-02-25T16:06:19;7.00;86.00
19803;DHT22;66074;50.764;6.090;2023-02-25T16:09:11;6.90;83.40
19803;DHT22;66074;50.764;6.090;2023-02-25T16:11:49;6.80;85.00
19803;DHT22;66074;50.764;6.090;2023-02-25T16:14:29;6.70;84.30
19803;DHT22;66074;50.764;6.090;2023-02-25T16:17:03;6.70;83.70
19803;DHT22;66074;50.764;6.090;2023-02-25T16:19:32;6.60;86.00
19803;DHT22;66074;50.764;6.090;2023-02-25T16:22:03;6.60;85.50
19803;DHT22;66074;50.764;6.090;2023-02-25T16:24:30;6.50;84.40
19803;DHT22;66074;50.764;6.090;2023-02-25T16:26:57;6.50;85.50
19803;DHT22;66074;50.764;6.090;2023-02-25T16:40:28;6.20;83.80
19803;DHT22;66074;50.764;6.090;2023-02-25T16:42:57;6.10;82.30
19803;DHT22;66074;50.764;6.090;2023-02-25T16:45:26;6.10;84.00
19803;DHT22;66074;50.764;6.090;2023-02-25T16:48:11;6.00;83.60
19803;DHT22;66074;50.764;6.090;2023-02-25T16:50:38;5.90;83.50
19803;DHT22;66074;50.764;6.090;2023-02-25T16:53:04;5.90;84.20
19803;DHT22;66074;50.764;6.090;2023-02-25T16:55:37;5.80;84.30
19803;DHT22;66074;50.764;6.090;2023-02-25T17:00:52;5.80;82.00
19803;DHT22;66074;50.764;6.090;2023-02-25T17:03:19;5.70;82.20
19803;DHT22;66074;50.764;6.090;2023-02-25T17:06:05;5.60;82.50
19803;DHT22;66074;50.764;6.090;2023-02-25T17:08:31;5.60;80.90
19803;DHT22;66074;50.764;6.090;2023-02-25T17:10:59;5.50;82.90
19803;DHT22;66074;50.764;6.090;2023-02-25T17:13:35;5.50;82.60
19803;DHT22;66074;50.764;6.090;2023-02-25T17:16:03;5.50;81.90
19803;DHT22;66074;50.764;6.090;2023-02-25T17:18:33;5.40;82.30
19803;DHT22;66074;50.764;6.090;2023-02-25T17:21:02;5.50;82.20
19803;DHT22;66074;50.764;6.090;2023-02-25T17:23:29;5.40;82.60
19803;DHT22;66074;50.764;6.090;2023-02-25T17:25:56;5.30;80.70
19803;DHT22;66074;50.764;6.090;2023-02-25T17:28:28;5.20;81.70
19803;DHT22;66074;50.764;6.090;2023-02-25T17:31:10;5.20;81.50
19803;DHT22;66074;50.764;6.090;2023-02-25T17:33:49;5.20;81.20
19803;DHT22;66074;50.764;6.090;2023-02-25T17:36:24;5.10;80.80
19803;DHT22;66074;50.764;6.090;2023-02-25T17:38:56;5.10;80.80
19803;DHT22;66074;50.764;6.090;2023-02-25T17:41:23;5.10;81.20
19803;DHT22;66074;50.764;6.090;2023-02-25T17:43:49;5.10;83.40
19803;DHT22;66074;50.764;6.090;2023-02-25T17:46:31;5.10;81.60
19803;DHT22;66074;50.764;6.090;2023-02-25T17:51:42;5.10;81.10
19803;DHT22;66074;50.764;6.090;2023-02-25T17:54:14;5.00;81.90
19803;DHT22;66074;50.764;6.090;2023-02-25T17:56:41;5.00;82.30
19803;DHT22;66074;50.764;6.090;2023-02-25T18:04:25;4.90;81.80
19803;DHT22;66074;50.764;6.090;2023-02-25T18:06:56;4.80;82.00
19803;DHT22;66074;50.764;6.090;2023-02-25T18:12:01;4.70;81.70
19803;DHT22;66074;50.764;6.090;2023-02-25T18:14:32;4.70;82.80
19803;DHT22;66074;50.764;6.090;2023-02-25T18:16:59;4.70;82.70
19803;DHT22;66074;50.764;6.090;2023-02-25T18:19:26;4.60;83.30
19803;DHT22;66074;50.764;6.090;2023-02-25T18:21:55;4.60;83.00
19803;DHT22;66074;50.764;6.090;2023-02-25T18:24:23;4.50;82.90
19803;DHT22;66074;50.764;6.090;2023-02-25T18:27:13;4.50;82.20
19803;DHT22;66074;50.764;6.090;2023-02-25T18:29:43;4.40;82.90
19803;DHT22;66074;50.764;6.090;2023-02-25T18:32:09;4.50;83.10
19803;DHT22;66074;50.764;6.090;2023-02-25T18:34:34;4.40;82.80
19803;DHT22;66074;50.764;6.090;2023-02-25T18:37:00;4.40;82.40
19803;DHT22;66074;50.764;6.090;2023-02-25T18:39:26;4.40;82.60
19803;DHT22;66074;50.764;6.090;2023-02-25T18:41:51;4.30;82.90
19803;DHT22;66074;50.764;6.090;2023-02-25T18:44:17;4.30;82.80
19803;DHT22;66074;50.764;6.090;2023-02-25T18:46:43;4.30;83.00
19803;DHT22;66074;50.764;6.090;2023-02-25T18:49:08;4.30;83.00
19803;DHT22;66074;50.764;6.090;2023-02-25T18:51:34;4.30;82.80
19803;DHT22;66074;50.764;6.090;2023-02-25T18:54:00;4.30;83.20
19803;DHT22;66074;50.764;6.090;2023-02-25T18:56:25;4.20;82.80
19803;DHT22;66074;50.764;6.090;2023-02-25T18:58:51;4.30;82.90
19803;DHT22;66074;50.764;6.090;2023-02-25T19:01:23;4.20;82.90
19803;DHT22;66074;50.764;6.090;2023-02-25T19:03:50;4.30;82.80
19803;DHT22;66074;50.764;6.090;2023-02-25T19:06:19;4.10;83.50
19803;DHT22;66074;50.764;6.090;2023-02-25T19:08:45;4.10;82.20
19803;DHT22;66074;50.764;6.090;2023-02-25T19:11:22;4.10;82.50
19803;DHT22;66074;50.764;6.090;2023-02-25T19:13:48;4.10;82.20
19803;DHT22;66074;50.764;6.090;2023-02-25T19:16:14;4.10;82.80
19803;DHT22;66074;50.764;6.090;2023-02-25T19:18:41;4.10;82.80
19803;DHT22;66074;50.764;6.090;2023-02-25T19:21:15;4.10;82.90
19803;DHT22;66074;50.764;6.090;2023-02-25T19:23:42;4.00;82.70
19803;DHT22;66074;50.764;6.090;2023-02-25T19:26:08;4.00;82.60
19803;DHT22;66074;50.764;6.090;2023-02-25T19:28:34;3.90;82.70
19803;DHT22;66074;50.764;6.090;2023-02-25T19:31:00;3.90;82.90
19803;DHT22;66074;50.764;6.090;2023-02-25T19:33:27;3.90;82.70
19803;DHT22;66074;50.764;6.090;2023-02-25T19:35:53;3.80;82.80
19803;DHT22;66074;50.764;6.090;2023-02-25T19:38:19;3.90;83.80
19803;DHT22;66074;50.764;6.090;2023-02-25T19:40:45;3.80;83.10
19803;DHT22;66074;50.764;6.090;2023-02-25T19:43:12;3.80;83.20
19803;DHT22;66074;50.764;6.090;2023-02-25T19:45:39;3.80;83.10
19803;DHT22;66074;50.764;6.090;2023-02-25T19:48:05;3.80;83.20
19803;DHT22;66074;50.764;6.090;2023-02-25T19:50:31;3.80;82.80
19803;DHT22;66074;50.764;6.090;2023-02-25T19:53:00;3.80;83.20
19803;DHT22;66074;50.764;6.090;2023-02-25T19:55:26;3.70;83.00
19803;DHT22;66074;50.764;6.090;2023-02-25T19:57:52;3.70;83.30
19803;DHT22;66074;50.764;6.090;2023-02-25T20:00:20;3.70;83.60
19803;DHT22;66074;50.764;6.090;2023-02-25T20:02:47;3.70;83.80
19803;DHT22;66074;50.764;6.090;2023-02-25T20:05:13;3.70;83.60
19803;DHT22;66074;50.764;6.090;2023-02-25T20:07:39;3.70;83.50
19803;DHT22;66074;50.764;6.090;2023-02-25T20:10:06;3.70;83.70
19803;DHT22;66074;50.764;6.090;2023-02-25T20:12:36;3.70;83.90